sensor_id;sensor_type;location;lat;lon;timestamp;pressure;altitude;pressure_sealevel;temperature;humidity
26657;BME280;14279;50.010;8.260;2024-02-15T00:01:04;100851.75;;;10.83;100.00
26657;BME280;14279;50.010;8.260;2024-02-15T00:03:29;100844.97;;;10.79;100.00
26657;BME280;14279;50.010;8.260;2024-02-15T00:05:57;100845.63;;;10.85;100.00
26657;BME280;14279;50.010;8.260;2024-02-15T00:08:22;100838.84;;;10.80;100.00
26657;BME280;14279;50.010;8.260;2024-02-15T00:10:47;100841.88;;;10.92;100.00
26657;BME280;14279;50.010;8.260;2024-02-15T00:13:13;100832.09;;;10.97;100.00
26657;BME280;14279;50.010;8.260;2024-02-15T00:15:39;100838.19;;;10.97;100.00
26657;BME280;14279;50.010;8.260;2024-02-15T00:18:04;100831.97;;;11.00;100.00
26657;BME280;14279;50.010;8.260;2024-02-15T00:20:29;100832.09;;;10.97;100.00
26657;BME280;14279;50.010;8.260;2024-02-15T00:22:55;100827.94;;;10.93;100.00
26657;BME280;14279;50.010;8.260;2024-02-15T00:25:21;100828.00;;;10.91;100.00
26657;BME280;14279;50.010;8.260;2024-02-15T00:27:46;100827.31;;;10.86;100.00
26657;BME280;14279;50.010;8.260;2024-02-15T00:30:12;100832.50;;;10.88;100.00
26657;BME280;14279;50.010;8.260;2024-02-15T00:32:37;100834.91;;;10.92;100.00
26657;BME280;14279;50.010;8.260;2024-02-15T00:35:04;100832.28;;;10.92;100.00
26657;BME280;14279;50.010;8.260;2024-02-15T00:37:33;100827.94;;;10.93;100.00
26657;BME280;14279;50.010;8.260;2024-02-15T00:39:58;100829.66;;;10.94;100.00
26657;BME280;14279;50.010;8.260;2024-02-15T00:42:23;100835.50;;;10.99;100.00
26657;BME280;14279;50.010;8.260;2024-02-15T00:44:49;100833.00;;;10.96;100.00
26657;BME280;14279;50.010;8.260;2024-02-15T00:47:14;100832.06;;;10.98;100.00
26657;BME280;14279;50.010;8.260;2024-02-15T00:49:40;100838.84;;;11.03;100.00
26657;BME280;14279;50.010;8.260;2024-02-15T00:52:05;100843.03;;;11.07;100.00
26657;BME280;14279;50.010;8.260;2024-02-15T00:54:31;100843.84;;;11.07;100.00
26657;BME280;14279;50.010;8.260;2024-02-15T00:56:56;100839.44;;;11.09;100.00
26657;BME280;14279;50.010;8.260;2024-02-15T00:59:21;100846.34;;;11.10;100.00
26657;BME280;14279;50.010;8.260;2024-02-15T01:01:46;100842.75;;;11.13;100.00
26657;BME280;14279;50.010;8.260;2024-02-15T01:04:13;100848.03;;;11.11;100.00
26657;BME280;14279;50.010;8.260;2024-02-15T01:06:38;100842.59;;;11.18;100.00
26657;BME280;14279;50.010;8.260;2024-02-15T01:09:03;100840.09;;;11.15;100.00
26657;BME280;14279;50.010;8.260;2024-02-15T01:11:30;100839.13;;;11.17;100.00
26657;BME280;14279;50.010;8.260;2024-02-15T01:13:57;100835.81;;;11.13;100.00
26657;BME280;14279;50.010;8.260;2024-02-15T01:16:23;100837.63;;;11.11;100.00
26657;BME280;14279;50.010;8.260;2024-02-15T01:18:49;100838.84;;;11.03;100.00
26657;BME280;14279;50.010;8.260;2024-02-15T01:21:15;100841.63;;;10.98;100.00
26657;BME280;14279;50.010;8.260;2024-02-15T01:23:40;100842.78;;;10.91;100.00
26657;BME280;14279;50.010;8.260;2024-02-15T01:26:06;100845.56;;;10.86;100.00
26657;BME280;14279;50.010;8.260;2024-02-15T01:28:31;100840.53;;;10.81;100.00
26657;BME280;14279;50.010;8.260;2024-02-15T01:30:57;100838.91;;;10.79;100.00
26657;BME280;14279;50.010;8.260;2024-02-15T01:33:22;100838.13;;;10.77;100.00
26657;BME280;14279;50.010;8.260;2024-02-15T01:35:47;100833.03;;;10.74;100.00
26657;BME280;14279;50.010;8.260;2024-02-15T01:38:13;100831.41;;;10.71;100.00
26657;BME280;14279;50.010;8.260;2024-02-15T01:40:39;100837.75;;;10.86;100.00
26657;BME280;14279;50.010;8.260;2024-02-15T01:43:04;100838.38;;;10.93;100.00
26657;BME280;14279;50.010;8.260;2024-02-15T01:45:29;100837.28;;;10.98;100.00
26657;BME280;14279;50.010;8.260;2024-02-15T01:47:55;100833.09;;;10.94;100.00
26657;BME280;14279;50.010;8.260;2024-02-15T01:50:21;100831.16;;;11.00;100.00
26657;BME280;14279;50.010;8.260;2024-02-15T01:52:49;100836.25;;;11.03;100.00
26657;BME280;14279;50.010;8.260;2024-02-15T01:55:17;100831.19;;;10.98;100.00
26657;BME280;14279;50.010;8.260;2024-02-15T01:57:44;100832.06;;;10.98;100.00
26657;BME280;14279;50.010;8.260;2024-02-15T02:00:11;100826.66;;;11.03;100.00
26657;BME280;14279;50.010;8.260;2024-02-15T02:02:39;100831.16;;;11.00;100.00
26657;BME280;14279;50.010;8.260;2024-02-15T02:05:07;100829.22;;;11.05;100.00
26657;BME280;14279;50.010;8.260;2024-02-15T02:07:33;100834.53;;;11.02;100.00
26657;BME280;14279;50.010;8.260;2024-02-15T02:09:58;100832.59;;;11.07;100.00
26657;BME280;14279;50.010;8.260;2024-02-15T02:12:24;100833.69;;;11.01;100.00
26657;BME280;14279;50.010;8.260;2024-02-15T02:14:56;100835.38;;;11.02;100.00
26657;BME280;14279;50.010;8.260;2024-02-15T02:17:21;100837.06;;;11.03;100.00
26657;BME280;14279;50.010;8.260;2024-02-15T02:19:47;100838.72;;;11.06;100.00
26657;BME280;14279;50.010;8.260;2024-02-15T02:22:14;100846.34;;;11.10;100.00
26657;BME280;14279;50.010;8.260;2024-02-15T02:25:01;100838.28;;;11.17;100.00
26657;BME280;14279;50.010;8.260;2024-02-15T02:27:26;100832.28;;;11.15;100.00
26657;BME280;14279;50.010;8.260;2024-02-15T02:29:53;100830.59;;;11.13;100.00
26657;BME280;14279;50.010;8.260;2024-02-15T02:32:18;100826.22;;;11.14;100.00
26657;BME280;14279;50.010;8.260;2024-02-15T02:34:43;100824.34;;;11.18;100.00
26657;BME280;14279;50.010;8.260;2024-02-15T02:37:09;100827.88;;;11.17;100.00
26657;BME280;14279;50.010;8.260;2024-02-15T02:39:35;100827.13;;;11.13;100.00
26657;BME280;14279;50.010;8.260;2024-02-15T02:42:01;100827.88;;;11.17;100.00
26657;BME280;14279;50.010;8.260;2024-02-15T02:44:26;100836.75;;;11.11;100.00
26657;BME280;14279;50.010;8.260;2024-02-15T02:46:51;100825.44;;;11.12;100.00
26657;BME280;14279;50.010;8.260;2024-02-15T02:49:17;100832.22;;;11.16;100.00
26657;BME280;14279;50.010;8.260;2024-02-15T02:51:42;100820.94;;;11.16;100.00
26657;BME280;14279;50.010;8.260;2024-02-15T02:54:08;100827.91;;;11.15;100.00
26657;BME280;14279;50.010;8.260;2024-02-15T02:56:33;100820.53;;;11.04;100.00
26657;BME280;14279;50.010;8.260;2024-02-15T02:58:58;100827.50;;;11.04;100.00
26657;BME280;14279;50.010;8.260;2024-02-15T03:01:23;100821.31;;;11.06;100.00
26657;BME280;14279;50.010;8.260;2024-02-15T03:03:52;100828.47;;;11.01;100.00
26657;BME280;14279;50.010;8.260;2024-02-15T03:06:20;100814.06;;;10.92;100.00
26657;BME280;14279;50.010;8.260;2024-02-15T03:08:46;100813.34;;;10.89;100.00
26657;BME280;14279;50.010;8.260;2024-02-15T03:11:11;100817.47;;;10.94;100.00
26657;BME280;14279;50.010;8.260;2024-02-15T03:13:37;100812.44;;;10.90;100.00
26657;BME280;14279;50.010;8.260;2024-02-15T03:16:02;100814.25;;;10.88;100.00
26657;BME280;14279;50.010;8.260;2024-02-15T03:18:29;100813.50;;;10.84;100.00
26657;BME280;14279;50.010;8.260;2024-02-15T03:20:54;100810.19;;;10.80;100.00
26657;BME280;14279;50.010;8.260;2024-02-15T03:23:20;100812.75;;;10.82;100.00
26657;BME280;14279;50.010;8.260;2024-02-15T03:25:45;100812.59;;;10.85;100.00
26657;BME280;14279;50.010;8.260;2024-02-15T03:28:10;100813.72;;;10.79;100.00
26657;BME280;14279;50.010;8.260;2024-02-15T03:30:35;100815.63;;;10.74;100.00
26657;BME280;14279;50.010;8.260;2024-02-15T03:33:01;100812.25;;;10.72;100.00
26657;BME280;14279;50.010;8.260;2024-02-15T03:35:30;100808.81;;;10.72;100.00
26657;BME280;14279;50.010;8.260;2024-02-15T03:37:56;100806.81;;;10.78;100.00
26657;BME280;14279;50.010;8.260;2024-02-15T03:40:22;100807.19;;;10.69;100.00
26657;BME280;14279;50.010;8.260;2024-02-15T03:42:49;100808.94;;;10.68;100.00
26657;BME280;14279;50.010;8.260;2024-02-15T03:45:17;100807.91;;;10.73;100.00
26657;BME280;14279;50.010;8.260;2024-02-15T03:47:42;100808.56;;;10.78;100.00
26657;BME280;14279;50.010;8.260;2024-02-15T03:50:08;100814.63;;;10.78;100.00
26657;BME280;14279;50.010;8.260;2024-02-15T03:52:40;100817.09;;;10.81;100.00
26657;BME280;14279;50.010;8.260;2024-02-15T03:55:06;100809.41;;;10.78;100.00
26657;BME280;14279;50.010;8.260;2024-02-15T03:57:32;100808.56;;;10.78;100.00
26657;BME280;14279;50.010;8.260;2024-02-15T03:59:59;100808.50;;;10.79;100.00
26657;BME280;14279;50.010;8.260;2024-02-15T04:02:25;100804.28;;;10.77;100.00
26657;BME280;14279;50.010;8.260;2024-02-15T04:04:56;100806.09;;;10.75;100.00
26657;BME280;14279;50.010;8.260;2024-02-15T04:07:22;100814.50;;;10.81;100.00
26657;BME280;14279;50.010;8.260;2024-02-15T04:09:50;100822.19;;;10.85;100.00
26657;BME280;14279;50.010;8.260;2024-02-15T04:12:16;100812.50;;;10.88;100.00
26657;BME280;14279;50.010;8.260;2024-02-15T04:14:42;100806.44;;;10.88;100.00
26657;BME280;14279;50.010;8.260;2024-02-15T04:17:10;100808.81;;;10.94;100.00
26657;BME280;14279;50.010;8.260;2024-02-15T04:19:35;100814.03;;;10.94;100.00
26657;BME280;14279;50.010;8.260;2024-02-15T04:22:02;100807.94;;;10.93;100.00
26657;BME280;14279;50.010;8.260;2024-02-15T04:24:32;100814.97;;;10.91;100.00
26657;BME280;14279;50.010;8.260;2024-02-15T04:26:57;100810.63;;;10.92;100.00
26657;BME280;14279;50.010;8.260;2024-02-15T04:29:24;100808.03;;;10.92;100.00
26657;BME280;14279;50.010;8.260;2024-02-15T04:31:49;100808.81;;;10.94;100.00
26657;BME280;14279;50.010;8.260;2024-02-15T04:34:15;100800.25;;;10.90;100.00
26657;BME280;14279;50.010;8.260;2024-02-15T04:36:43;100804.34;;;10.96;100.00
26657;BME280;14279;50.010;8.260;2024-02-15T04:39:10;100803.59;;;10.94;100.00
26657;BME280;14279;50.010;8.260;2024-02-15T04:41:37;100807.91;;;10.95;100.00
26657;BME280;14279;50.010;8.260;2024-02-15T04:44:04;100793.22;;;10.92;100.00
26657;BME280;14279;50.010;8.260;2024-02-15T04:46:30;100794.09;;;10.93;100.00
26657;BME280;14279;50.010;8.260;2024-02-15T04:48:55;100793.88;;;10.97;100.00
26657;BME280;14279;50.010;8.260;2024-02-15T04:51:23;100787.78;;;10.98;100.00
26657;BME280;14279;50.010;8.260;2024-02-15T04:53:48;100789.72;;;10.93;100.00
26657;BME280;14279;50.010;8.260;2024-02-15T04:56:14;100802.25;;;10.83;100.00
26657;BME280;14279;50.010;8.260;2024-02-15T04:58:40;100794.44;;;10.83;100.00
26657;BME280;14279;50.010;8.260;2024-02-15T05:01:16;100784.38;;;10.74;100.00
26657;BME280;14279;50.010;8.260;2024-02-15T05:03:44;100793.63;;;10.61;100.00
26657;BME280;14279;50.010;8.260;2024-02-15T05:06:10;100792.41;;;10.70;100.00
26657;BME280;14279;50.010;8.260;2024-02-15T05:08:38;100796.78;;;10.69;100.00
26657;BME280;14279;50.010;8.260;2024-02-15T05:11:08;100801.91;;;10.71;100.00
26657;BME280;14279;50.010;8.260;2024-02-15T05:13:38;100791.50;;;10.71;100.00
26657;BME280;14279;50.010;8.260;2024-02-15T05:16:04;100798.28;;;10.75;100.00
26657;BME280;14279;50.010;8.260;2024-02-15T05:18:30;100799.06;;;10.77;100.00
26657;BME280;14279;50.010;8.260;2024-02-15T05:20:56;100798.09;;;10.79;100.00
26657;BME280;14279;50.010;8.260;2024-02-15T05:23:22;100790.16;;;10.82;100.00
26657;BME280;14279;50.010;8.260;2024-02-15T05:25:47;100787.53;;;10.82;100.00
26657;BME280;14279;50.010;8.260;2024-02-15T05:28:13;100792.84;;;10.81;100.00
26657;BME280;14279;50.010;8.260;2024-02-15T05:30:38;100789.44;;;10.79;100.00
26657;BME280;14279;50.010;8.260;2024-02-15T05:33:04;100791.78;;;10.85;100.00
26657;BME280;14279;50.010;8.260;2024-02-15T05:35:30;100798.81;;;10.83;100.00
26657;BME280;14279;50.010;8.260;2024-02-15T05:37:55;100796.63;;;10.72;100.00
26657;BME280;14279;50.010;8.260;2024-02-15T05:40:21;100791.50;;;10.71;100.00
26657;BME280;14279;50.010;8.260;2024-02-15T05:42:46;100799.19;;;10.74;100.00
26657;BME280;14279;50.010;8.260;2024-02-15T05:47:55;100804.94;;;10.82;100.00
26657;BME280;14279;50.010;8.260;2024-02-15T05:50:20;100808.47;;;10.81;100.00
26657;BME280;14279;50.010;8.260;2024-02-15T05:52:47;100807.66;;;10.79;100.00
26657;BME280;14279;50.010;8.260;2024-02-15T05:55:12;100805.53;;;10.66;100.00
26657;BME280;14279;50.010;8.260;2024-02-15T05:57:42;100803.16;;;10.60;100.00
26657;BME280;14279;50.010;8.260;2024-02-15T06:00:08;100804.16;;;10.58;100.00
26657;BME280;14279;50.010;8.260;2024-02-15T06:02:33;100799.59;;;10.63;100.00
26657;BME280;14279;50.010;8.260;2024-02-15T06:04:59;100797.84;;;10.63;100.00
26657;BME280;14279;50.010;8.260;2024-02-15T06:07:28;100799.34;;;10.47;100.00
26657;BME280;14279;50.010;8.260;2024-02-15T06:09:54;100797.72;;;10.44;100.00
26657;BME280;14279;50.010;8.260;2024-02-15T06:12:19;100795.84;;;10.48;100.00
26657;BME280;14279;50.010;8.260;2024-02-15T06:14:44;100799.91;;;10.55;100.00
26657;BME280;14279;50.010;8.260;2024-02-15T06:17:09;100795.72;;;10.51;100.00
26657;BME280;14279;50.010;8.260;2024-02-15T06:19:35;100797.31;;;10.55;100.00
26657;BME280;14279;50.010;8.260;2024-02-15T06:22:01;100790.22;;;10.59;100.00
26657;BME280;14279;50.010;8.260;2024-02-15T06:24:26;100791.09;;;10.59;100.00
26657;BME280;14279;50.010;8.260;2024-02-15T06:26:53;100789.19;;;10.63;100.00
26657;BME280;14279;50.010;8.260;2024-02-15T06:29:24;100783.88;;;10.66;100.00
26657;BME280;14279;50.010;8.260;2024-02-15T06:32:08;100780.53;;;10.62;100.00
26657;BME280;14279;50.010;8.260;2024-02-15T06:34:52;100771.81;;;10.63;100.00
26657;BME280;14279;50.010;8.260;2024-02-15T06:37:37;100773.47;;;10.66;100.00
26657;BME280;14279;50.010;8.260;2024-02-15T06:40:21;100764.06;;;10.62;100.00
26657;BME280;14279;50.010;8.260;2024-02-15T06:42:47;100763.16;;;10.63;100.00
26657;BME280;14279;50.010;8.260;2024-02-15T06:45:13;100759.53;;;10.67;100.00
26657;BME280;14279;50.010;8.260;2024-02-15T06:47:41;100764.22;;;10.79;100.00
26657;BME280;14279;50.010;8.260;2024-02-15T06:50:07;100765.88;;;10.82;100.00
26657;BME280;14279;50.010;8.260;2024-02-15T06:52:34;100762.97;;;10.90;100.00
26657;BME280;14279;50.010;8.260;2024-02-15T06:54:59;100764.38;;;10.97;100.00
26657;BME280;14279;50.010;8.260;2024-02-15T06:57:25;100768.44;;;11.04;100.00
26657;BME280;14279;50.010;8.260;2024-02-15T06:59:51;100773.50;;;11.07;100.00
26657;BME280;14279;50.010;8.260;2024-02-15T07:02:16;100770.13;;;11.05;100.00
26657;BME280;14279;50.010;8.260;2024-02-15T07:04:44;100775.13;;;11.10;100.00
26657;BME280;14279;50.010;8.260;2024-02-15T07:07:10;100783.41;;;11.20;100.00
26657;BME280;14279;50.010;8.260;2024-02-15T07:09:35;100786.91;;;10.98;100.00
26657;BME280;14279;50.010;8.260;2024-02-15T07:12:00;100782.47;;;11.00;100.00
26657;BME280;14279;50.010;8.260;2024-02-15T07:14:26;100791.94;;;11.03;100.00
26657;BME280;14279;50.010;8.260;2024-02-15T07:16:53;100786.88;;;11.00;100.00
26657;BME280;14279;50.010;8.260;2024-02-15T07:19:22;100781.91;;;10.93;100.00
26657;BME280;14279;50.010;8.260;2024-02-15T07:21:47;100792.63;;;10.86;100.00
26657;BME280;14279;50.010;8.260;2024-02-15T07:24:12;100790.81;;;10.88;100.00
26657;BME280;14279;50.010;8.260;2024-02-15T07:26:38;100789.50;;;10.98;100.00
26657;BME280;14279;50.010;8.260;2024-02-15T07:29:04;100788.94;;;11.12;100.00
26657;BME280;14279;50.010;8.260;2024-02-15T07:31:33;100788.00;;;11.15;100.00
26657;BME280;14279;50.010;8.260;2024-02-15T07:33:59;100784.06;;;11.25;100.00
26657;BME280;14279;50.010;8.260;2024-02-15T07:36:24;100779.66;;;11.27;100.00
26657;BME280;14279;50.010;8.260;2024-02-15T07:38:51;100793.00;;;11.19;100.00
26657;BME280;14279;50.010;8.260;2024-02-15T07:41:18;100789.34;;;11.23;100.00
26657;BME280;14279;50.010;8.260;2024-02-15T07:43:45;100786.50;;;11.30;100.00
26657;BME280;14279;50.010;8.260;2024-02-15T07:46:13;100791.63;;;11.31;99.66
26657;BME280;14279;50.010;8.260;2024-02-15T07:48:44;100790.94;;;11.27;100.00
26657;BME280;14279;50.010;8.260;2024-02-15T07:51:14;100790.28;;;11.22;100.00
26657;BME280;14279;50.010;8.260;2024-02-15T07:53:40;100799.97;;;11.19;100.00
26657;BME280;14279;50.010;8.260;2024-02-15T07:56:06;100804.13;;;11.23;100.00
26657;BME280;14279;50.010;8.260;2024-02-15T07:58:31;100812.63;;;11.28;100.00
26657;BME280;14279;50.010;8.260;2024-02-15T08:00:56;100810.91;;;11.27;100.00
26657;BME280;14279;50.010;8.260;2024-02-15T08:03:22;100814.31;;;11.29;100.00
26657;BME280;14279;50.010;8.260;2024-02-15T08:05:48;100810.78;;;11.30;100.00
26657;BME280;14279;50.010;8.260;2024-02-15T08:08:13;100811.50;;;11.34;99.86
26657;BME280;14279;50.010;8.260;2024-02-15T08:10:38;100810.41;;;11.39;99.63
26657;BME280;14279;50.010;8.260;2024-02-15T08:13:04;100807.94;;;11.36;99.28
26657;BME280;14279;50.010;8.260;2024-02-15T08:15:32;100805.81;;;11.24;100.00
26657;BME280;14279;50.010;8.260;2024-02-15T08:17:58;100808.31;;;11.27;100.00
26657;BME280;14279;50.010;8.260;2024-02-15T08:20:24;100805.56;;;11.30;100.00
26657;BME280;14279;50.010;8.260;2024-02-15T08:22:49;100805.78;;;11.46;99.33
26657;BME280;14279;50.010;8.260;2024-02-15T08:25:15;100800.56;;;11.46;99.56
26657;BME280;14279;50.010;8.260;2024-02-15T08:27:42;100798.16;;;11.62;99.26
26657;BME280;14279;50.010;8.260;2024-02-15T08:30:10;100801.22;;;11.51;98.75
26657;BME280;14279;50.010;8.260;2024-02-15T08:32:42;100801.16;;;11.53;98.97
26657;BME280;14279;50.010;8.260;2024-02-15T08:35:12;100803.16;;;11.67;98.29
26657;BME280;14279;50.010;8.260;2024-02-15T08:37:38;100797.84;;;11.68;97.76
26657;BME280;14279;50.010;8.260;2024-02-15T08:40:05;100801.91;;;11.76;97.06
26657;BME280;14279;50.010;8.260;2024-02-15T08:42:43;100792.19;;;11.79;96.83
26657;BME280;14279;50.010;8.260;2024-02-15T08:45:09;100795.16;;;11.91;96.70
26657;BME280;14279;50.010;8.260;2024-02-15T08:47:39;100795.81;;;11.96;96.31
26657;BME280;14279;50.010;8.260;2024-02-15T08:50:06;100802.63;;;11.98;96.40
26657;BME280;14279;50.010;8.260;2024-02-15T08:52:31;100799.88;;;12.03;95.96
26657;BME280;14279;50.010;8.260;2024-02-15T08:54:57;100801.25;;;12.10;95.49
26657;BME280;14279;50.010;8.260;2024-02-15T08:57:24;100801.00;;;12.16;95.08
26657;BME280;14279;50.010;8.260;2024-02-15T08:59:50;100793.03;;;12.20;94.96
26657;BME280;14279;50.010;8.260;2024-02-15T09:02:17;100800.72;;;12.23;94.02
26657;BME280;14279;50.010;8.260;2024-02-15T09:04:42;100795.28;;;12.27;93.72
26657;BME280;14279;50.010;8.260;2024-02-15T09:07:08;100795.19;;;12.29;93.92
26657;BME280;14279;50.010;8.260;2024-02-15T09:09:34;100794.00;;;12.17;94.66
26657;BME280;14279;50.010;8.260;2024-02-15T09:12:04;100800.22;;;12.14;95.39
26657;BME280;14279;50.010;8.260;2024-02-15T09:14:34;100795.41;;;12.24;94.10
26657;BME280;14279;50.010;8.260;2024-02-15T09:17:03;100779.41;;;12.13;94.45
26657;BME280;14279;50.010;8.260;2024-02-15T09:19:32;100787.03;;;12.17;94.53
26657;BME280;14279;50.010;8.260;2024-02-15T09:21:58;100784.06;;;12.25;94.50
26657;BME280;14279;50.010;8.260;2024-02-15T09:24:23;100784.41;;;12.37;94.42
26657;BME280;14279;50.010;8.260;2024-02-15T09:26:50;100782.75;;;12.53;93.24
26657;BME280;14279;50.010;8.260;2024-02-15T09:29:15;100785.28;;;12.55;93.07
26657;BME280;14279;50.010;8.260;2024-02-15T09:31:41;100784.59;;;12.51;92.91
26657;BME280;14279;50.010;8.260;2024-02-15T09:34:06;100780.16;;;12.53;93.18
26657;BME280;14279;50.010;8.260;2024-02-15T09:36:35;100782.63;;;12.56;92.76
26657;BME280;14279;50.010;8.260;2024-02-15T09:39:04;100779.78;;;12.61;92.80
26657;BME280;14279;50.010;8.260;2024-02-15T09:41:30;100782.59;;;12.75;92.49
26657;BME280;14279;50.010;8.260;2024-02-15T09:43:55;100780.97;;;12.90;91.77
26657;BME280;14279;50.010;8.260;2024-02-15T09:46:21;100782.38;;;12.98;90.96
26657;BME280;14279;50.010;8.260;2024-02-15T09:48:50;100781.44;;;13.16;90.08
26657;BME280;14279;50.010;8.260;2024-02-15T09:51:18;100777.19;;;13.49;88.22
26657;BME280;14279;50.010;8.260;2024-02-15T09:53:44;100780.16;;;13.43;87.85
26657;BME280;14279;50.010;8.260;2024-02-15T09:56:13;100772.53;;;13.56;87.29
26657;BME280;14279;50.010;8.260;2024-02-15T09:58:38;100778.22;;;13.46;87.25
26657;BME280;14279;50.010;8.260;2024-02-15T10:01:04;100774.00;;;13.44;87.00
26657;BME280;14279;50.010;8.260;2024-02-15T10:03:37;100773.13;;;13.26;87.67
26657;BME280;14279;50.010;8.260;2024-02-15T10:06:02;100766.00;;;13.47;86.21
26657;BME280;14279;50.010;8.260;2024-02-15T10:08:29;100771.19;;;13.64;86.10
26657;BME280;14279;50.010;8.260;2024-02-15T10:11:05;100772.44;;;13.57;86.33
26657;BME280;14279;50.010;8.260;2024-02-15T10:13:32;100761.13;;;13.90;85.35
26657;BME280;14279;50.010;8.260;2024-02-15T10:15:57;100758.16;;;13.96;84.72
26657;BME280;14279;50.010;8.260;2024-02-15T10:18:22;100756.41;;;14.29;82.89
26657;BME280;14279;50.010;8.260;2024-02-15T10:20:57;100758.69;;;14.19;83.54
26657;BME280;14279;50.010;8.260;2024-02-15T10:23:23;100755.63;;;14.11;84.31
26657;BME280;14279;50.010;8.260;2024-02-15T10:25:48;100747.59;;;13.98;85.13
26657;BME280;14279;50.010;8.260;2024-02-15T10:28:20;100746.03;;;13.62;86.27
26657;BME280;14279;50.010;8.260;2024-02-15T10:31:26;100746.00;;;13.79;85.46
26657;BME280;14279;50.010;8.260;2024-02-15T10:38:43;100737.38;;;14.25;83.07
26657;BME280;14279;50.010;8.260;2024-02-15T10:41:11;100732.22;;;13.92;84.10
26657;BME280;14279;50.010;8.260;2024-02-15T10:43:40;100722.66;;;13.75;84.90
26657;BME280;14279;50.010;8.260;2024-02-15T10:46:25;100721.16;;;13.87;84.95
26657;BME280;14279;50.010;8.260;2024-02-15T10:48:53;100711.28;;;13.92;84.49
26657;BME280;14279;50.010;8.260;2024-02-15T10:51:28;100715.34;;;14.30;83.06
26657;BME280;14279;50.010;8.260;2024-02-15T10:53:57;100725.06;;;14.27;82.49
26657;BME280;14279;50.010;8.260;2024-02-15T10:56:35;100716.38;;;14.11;83.09
26657;BME280;14279;50.010;8.260;2024-02-15T10:59:15;100714.41;;;14.15;82.46
26657;BME280;14279;50.010;8.260;2024-02-15T11:01:42;100720.25;;;14.04;82.07
26657;BME280;14279;50.010;8.260;2024-02-15T11:04:08;100713.50;;;14.16;81.84
26657;BME280;14279;50.010;8.260;2024-02-15T11:06:35;100705.03;;;14.26;80.38
26657;BME280;14279;50.010;8.260;2024-02-15T11:09:04;100705.75;;;14.61;79.30
26657;BME280;14279;50.010;8.260;2024-02-15T11:11:31;100696.06;;;14.77;78.55
26657;BME280;14279;50.010;8.260;2024-02-15T11:14:27;100701.25;;;14.79;79.63
26657;BME280;14279;50.010;8.260;2024-02-15T11:23:00;100683.72;;;14.49;81.31
26657;BME280;14279;50.010;8.260;2024-02-15T11:25:33;100676.91;;;14.61;80.70
26657;BME280;14279;50.010;8.260;2024-02-15T11:30:48;100675.72;;;14.66;81.15
26657;BME280;14279;50.010;8.260;2024-02-15T11:33:32;100670.06;;;14.74;80.74
26657;BME280;14279;50.010;8.260;2024-02-15T11:36:08;100675.22;;;14.76;79.87
26657;BME280;14279;50.010;8.260;2024-02-15T11:38:35;100671.91;;;14.72;80.66
26657;BME280;14279;50.010;8.260;2024-02-15T11:41:02;100665.84;;;14.71;80.85
26657;BME280;14279;50.010;8.260;2024-02-15T11:46:21;100654.84;;;14.95;79.83
26657;BME280;14279;50.010;8.260;2024-02-15T11:48:49;100660.72;;;14.99;80.05
26657;BME280;14279;50.010;8.260;2024-02-15T11:51:36;100661.00;;;14.94;79.73
26657;BME280;14279;50.010;8.260;2024-02-15T11:54:11;100647.72;;;15.12;79.20
26657;BME280;14279;50.010;8.260;2024-02-15T11:59:30;100638.44;;;15.21;78.88
26657;BME280;14279;50.010;8.260;2024-02-15T12:01:58;100641.81;;;15.23;78.50
26657;BME280;14279;50.010;8.260;2024-02-15T12:04:46;100642.66;;;15.09;79.09
26657;BME280;14279;50.010;8.260;2024-02-15T12:07:30;100635.28;;;15.01;78.93
26657;BME280;14279;50.010;8.260;2024-02-15T12:10:18;100634.25;;;15.03;79.53
26657;BME280;14279;50.010;8.260;2024-02-15T12:13:02;100633.47;;;14.87;80.04
26657;BME280;14279;50.010;8.260;2024-02-15T12:15:59;100636.09;;;14.72;79.97
26657;BME280;14279;50.010;8.260;2024-02-15T12:18:43;100626.69;;;15.13;78.61
26657;BME280;14279;50.010;8.260;2024-02-15T12:21:13;100620.09;;;15.21;78.53
26657;BME280;14279;50.010;8.260;2024-02-15T12:23:39;100618.22;;;15.23;78.35
26657;BME280;14279;50.010;8.260;2024-02-15T12:26:06;100625.91;;;15.26;77.80
26657;BME280;14279;50.010;8.260;2024-02-15T12:28:32;100620.03;;;15.22;78.01
26657;BME280;14279;50.010;8.260;2024-02-15T12:31:00;100616.47;;;15.23;77.62
26657;BME280;14279;50.010;8.260;2024-02-15T12:33:26;100612.03;;;15.24;77.89
26657;BME280;14279;50.010;8.260;2024-02-15T12:36:03;100613.94;;;15.07;78.65
26657;BME280;14279;50.010;8.260;2024-02-15T12:38:30;100615.59;;;15.23;77.57
26657;BME280;14279;50.010;8.260;2024-02-15T12:40:55;100604.84;;;15.27;77.61
26657;BME280;14279;50.010;8.260;2024-02-15T12:43:22;100601.25;;;15.43;76.69
26657;BME280;14279;50.010;8.260;2024-02-15T12:45:47;100604.75;;;15.29;77.08
26657;BME280;14279;50.010;8.260;2024-02-15T12:48:12;100598.66;;;15.14;78.05
26657;BME280;14279;50.010;8.260;2024-02-15T12:50:40;100597.56;;;15.03;78.62
26657;BME280;14279;50.010;8.260;2024-02-15T12:53:05;100598.94;;;15.09;78.47
26657;BME280;14279;50.010;8.260;2024-02-15T12:55:39;100610.34;;;15.37;77.16
26657;BME280;14279;50.010;8.260;2024-02-15T12:58:12;100600.69;;;15.38;76.74
26657;BME280;14279;50.010;8.260;2024-02-15T13:00:39;100598.09;;;15.09;77.67
26657;BME280;14279;50.010;8.260;2024-02-15T13:03:05;100599.31;;;15.17;76.97
26657;BME280;14279;50.010;8.260;2024-02-15T13:05:34;100593.91;;;15.06;77.25
26657;BME280;14279;50.010;8.260;2024-02-15T13:07:59;100590.53;;;14.90;78.19